Airport View

Enter AWOS ICAO identifier for current METAR.

ex. KFNL

KCQW 080445Z AUTO 05004KT 10SM BKN090 23/22 A2996 RMK AO2

8 Jul 2020 04:49

Frequency: 124.825

Phone: 843-537-3301

Other Area AWOS: KBBP - KRCZ - KUDG - KAFP

TAF AMD KFLO 080211Z 0802/0824 04006KT P6SM VCSH BKN004 OVC050 TEMPO 0802/0805 -RA SCT002 OVC050 FM080600 04005KT P6SM VCSH OVC004 FM081200 05004KT P6SM -SHRA OVC003 FM081600 03004KT 6SM SHRA BKN010